Time;durP1;ratioP1;P1;durP2;ratioP2;P2;SDS_P1;SDS_P2;PMS_P1;PMS_P2;Temp;Humidity;BMP_temperature;BMP_pressure;BME280_temperature;BME280_humidity;BME280_pressure;Samples;Min_cycle;Max_cycle;Signal;HPM_P1;HPM_P2
2021/01/01 00:01:43;;;;;;;67.40;39.95;;;;;;;4.80;82.14;93356.65;1728438;83;21108;-58
2021/01/01 00:04:11;;;;;;;69.97;42.30;;;;;;;4.84;81.99;93365.48;1728527;83;21190;-60
2021/01/01 00:06:39;;;;;;;79.75;47.73;;;;;;;4.87;82.00;93361.09;1728498;83;21063;-58
2021/01/01 00:09:07;;;;;;;79.70;46.08;;;;;;;4.86;81.93;93361.70;1699798;83;22075;-57
2021/01/01 00:11:36;;;;;;;84.92;50.70;;;;;;;4.83;81.73;93359.84;1728453;83;21120;-59
2021/01/01 00:14:05;;;;;;;83.37;48.10;;;;;;;4.77;81.65;93360.88;1728439;83;21254;-57
2021/01/01 00:16:35;;;;;;;104.10;57.10;;;;;;;4.74;81.99;93364.47;1728402;83;21158;-58
2021/01/01 00:19:03;;;;;;;93.03;52.15;;;;;;;4.78;82.11;93363.14;1728495;83;21171;-57
2021/01/01 00:21:32;;;;;;;93.15;52.83;;;;;;;4.81;82.03;93364.98;1728465;83;22446;-56
2021/01/01 00:24:01;;;;;;;90.87;52.65;;;;;;;4.87;81.97;93365.17;1728464;83;21515;-59
2021/01/01 00:26:29;;;;;;;89.92;51.60;;;;;;;4.91;81.72;93364.44;1728534;83;21932;-56
2021/01/01 00:28:58;;;;;;;85.72;48.42;;;;;;;4.88;81.75;93359.30;1728479;83;21107;-58
2021/01/01 00:31:28;;;;;;;83.82;49.77;;;;;;;4.89;81.78;93359.45;1728419;83;21093;-56
2021/01/01 00:33:56;;;;;;;80.75;46.95;;;;;;;4.93;81.84;93351.90;1728535;83;21418;-59
2021/01/01 00:36:24;;;;;;;83.85;47.08;;;;;;;4.99;81.50;93361.02;1699864;83;21167;-60
2021/01/01 00:38:53;;;;;;;96.87;52.75;;;;;;;5.00;81.46;93348.16;1728402;83;21083;-56
2021/01/01 00:41:30;;;;;;;94.47;48.85;;;;;;;4.92;81.21;93350.97;1728386;83;21214;-60
2021/01/01 00:44:04;;;;;;;107.45;56.42;;;;;;;4.86;81.33;93348.08;1728525;83;21134;-58
2021/01/01 00:46:34;;;;;;;110.97;59.38;;;;;;;4.80;81.46;93349.84;1728504;83;21275;-60
2021/01/01 00:49:02;;;;;;;94.47;52.60;;;;;;;4.79;81.74;93350.30;1728427;83;21170;-59
2021/01/01 00:51:34;;;;;;;102.17;54.95;;;;;;;4.83;81.64;93348.20;1700427;83;21587;-57
2021/01/01 00:54:04;;;;;;;97.20;54.75;;;;;;;4.81;81.55;93341.83;1728576;83;21162;-57
2021/01/01 00:56:32;;;;;;;87.78;48.95;;;;;;;4.81;81.84;93351.36;1728534;83;21146;-58
2021/01/01 00:59:01;;;;;;;73.85;43.50;;;;;;;4.79;81.65;93357.86;1728301;82;21586;-58
2021/01/01 01:01:30;;;;;;;61.37;39.15;;;;;;;4.78;81.87;93358.31;1699985;83;21088;-57
2021/01/01 01:03:59;;;;;;;70.42;43.73;;;;;;;4.81;81.66;93356.06;1728467;83;21095;-59
2021/01/01 01:06:28;;;;;;;64.10;40.20;;;;;;;4.78;81.47;93356.34;1699973;83;21079;-58
2021/01/01 01:08:56;;;;;;;70.15;42.43;;;;;;;4.79;81.61;93376.18;1728576;83;21500;-58
2021/01/01 01:11:26;;;;;;;68.78;40.83;;;;;;;4.72;81.45;93363.56;1728575;83;22098;-60
2021/01/01 01:13:54;;;;;;;60.17;36.03;;;;;;;4.69;81.84;93376.71;1728481;83;21167;-57
2021/01/01 01:16:27;;;;;;;58.75;36.70;;;;;;;4.66;81.61;93368.66;1728479;83;21540;-57
2021/01/01 01:18:55;;;;;;;59.10;37.90;;;;;;;4.58;81.74;93370.13;1728823;83;21155;-57
2021/01/01 01:21:24;;;;;;;60.10;37.33;;;;;;;4.54;82.01;93368.09;1699931;83;21866;-58
2021/01/01 01:23:52;;;;;;;56.70;36.70;;;;;;;4.55;82.09;93351.33;1728557;83;22128;-57
2021/01/01 01:26:20;;;;;;;54.77;35.17;;;;;;;4.52;82.36;93353.58;1728514;83;21524;-60
2021/01/01 01:28:48;;;;;;;63.05;37.90;;;;;;;4.49;82.29;93352.34;1728360;83;21515;-58
2021/01/01 01:31:17;;;;;;;50.03;33.33;;;;;;;4.50;82.48;93351.13;1728393;83;21099;-57
2021/01/01 01:33:45;;;;;;;70.17;41.25;;;;;;;4.54;82.41;93354.48;1728454;83;21184;-57
2021/01/01 01:36:13;;;;;;;86.92;47.93;;;;;;;4.57;82.32;93351.64;1728366;83;21404;-60
2021/01/01 01:38:42;;;;;;;95.45;53.40;;;;;;;4.55;82.25;93356.00;1728343;83;21187;-56
2021/01/01 01:41:10;;;;;;;104.47;54.40;;;;;;;4.49;82.41;93353.11;1728443;81;21169;-57
2021/01/01 01:43:39;;;;;;;140.82;71.22;;;;;;;4.44;82.57;93343.38;1728378;83;21230;-56
2021/01/01 01:46:07;;;;;;;114.22;60.38;;;;;;;4.46;82.68;93332.80;1728486;83;21480;-57
2021/01/01 01:48:37;;;;;;;87.15;50.00;;;;;;;4.52;82.63;93328.30;1728426;83;21219;-57
2021/01/01 01:51:08;;;;;;;81.50;46.25;;;;;;;4.57;82.68;93340.02;1728387;83;21556;-58
2021/01/01 01:53:42;;;;;;;65.08;38.25;;;;;;;4.61;82.50;93337.91;1728401;83;21075;-58
2021/01/01 01:56:11;;;;;;;74.12;42.33;;;;;;;4.58;82.12;93342.27;1699608;83;21246;-58
2021/01/01 01:58:42;;;;;;;58.33;35.50;;;;;;;4.47;82.14;93348.71;1727712;82;21241;-57
2021/01/01 02:01:11;;;;;;;51.92;32.78;;;;;;;4.43;82.19;93346.69;1725807;83;21226;-56
2021/01/01 02:03:40;;;;;;;45.50;31.00;;;;;;;4.39;82.19;93348.78;1725744;83;21111;-56
2021/01/01 02:06:09;;;;;;;36.00;23.32;;;;;;;4.30;82.03;93352.80;1725885;83;21096;-56
2021/01/01 02:08:37;;;;;;;43.83;28.98;;;;;;;4.24;82.34;93345.64;1692964;83;21203;-57
2021/01/01 02:11:05;;;;;;;44.85;29.40;;;;;;;4.19;82.48;93342.86;1726001;83;21143;-57
2021/01/01 02:13:35;;;;;;;39.25;27.32;;;;;;;4.18;82.79;93348.16;1693982;83;21227;-57
2021/01/01 02:16:04;;;;;;;43.85;27.52;;;;;;;4.22;82.80;93340.63;1693488;83;21160;-57
2021/01/01 02:18:39;;;;;;;50.05;32.33;;;;;;;4.25;82.73;93349.88;1723973;83;21163;-57
2021/01/01 02:21:08;;;;;;;49.65;31.65;;;;;;;4.29;82.97;93351.28;1726197;83;21163;-59
2021/01/01 02:23:36;;;;;;;47.58;30.17;;;;;;;4.42;83.19;93357.42;1693665;83;21493;-56
2021/01/01 02:26:05;;;;;;;41.75;27.32;;;;;;;4.45;82.57;93349.73;1725955;83;22029;-57
2021/01/01 02:28:33;;;;;;;42.60;28.85;;;;;;;4.44;82.75;93349.57;1725875;83;21140;-57
2021/01/01 02:31:01;;;;;;;41.55;26.62;;;;;;;4.46;82.53;93346.42;1725932;83;21194;-57
2021/01/01 02:33:30;;;;;;;41.08;25.92;;;;;;;4.49;82.71;93355.83;1726033;83;21079;-56
2021/01/01 02:35:58;;;;;;;45.52;28.75;;;;;;;4.53;82.42;93357.05;1725957;83;21083;-57
2021/01/01 02:38:26;;;;;;;52.03;33.20;;;;;;;4.55;82.30;93362.81;1725892;83;21287;-56
2021/01/01 02:40:54;;;;;;;50.70;32.03;;;;;;;4.54;82.13;93351.17;1725807;83;21143;-57
2021/01/01 02:43:22;;;;;;;46.90;29.23;;;;;;;4.49;82.17;93349.03;1725895;83;21175;-58
2021/01/01 02:45:51;;;;;;;61.73;35.28;;;;;;;4.41;81.92;93345.63;1725862;83;21936;-56
2021/01/01 02:48:21;;;;;;;62.70;36.42;;;;;;;4.32;82.24;93346.31;1725961;83;21156;-56
2021/01/01 02:50:52;;;;;;;71.42;39.25;;;;;;;4.33;82.22;93342.97;1725980;83;21481;-55
2021/01/01 02:53:20;;;;;;;75.00;42.90;;;;;;;4.30;82.26;93342.50;1725855;83;21124;-56
2021/01/01 02:55:49;;;;;;;72.45;39.88;;;;;;;4.29;82.21;93338.27;1725942;83;21100;-56
2021/01/01 02:58:17;;;;;;;69.70;40.03;;;;;;;4.25;82.21;93339.73;1725977;83;21488;-58
2021/01/01 03:00:48;;;;;;;69.90;40.90;;;;;;;4.19;82.26;93340.14;1725928;83;21164;-57
2021/01/01 03:03:17;;;;;;;76.00;41.68;;;;;;;4.16;82.32;93348.42;1726027;83;21205;-58
2021/01/01 03:05:46;;;;;;;97.90;47.43;;;;;;;4.15;82.55;93354.48;1725891;83;21130;-58
2021/01/01 03:08:14;;;;;;;78.55;40.83;;;;;;;4.17;82.61;93349.94;1726004;81;21580;-57
2021/01/01 03:10:43;;;;;;;72.30;39.30;;;;;;;4.17;82.75;93347.98;1725988;82;21099;-57
2021/01/01 03:13:12;;;;;;;78.83;40.33;;;;;;;4.16;82.54;93350.55;1693492;83;21202;-57
2021/01/01 03:15:40;;;;;;;73.28;39.67;;;;;;;4.13;82.53;93358.23;1726014;83;21556;-56
2021/01/01 03:18:09;;;;;;;62.73;37.20;;;;;;;4.18;82.90;93358.26;1725945;83;21095;-57
2021/01/01 03:20:37;;;;;;;70.62;43.02;;;;;;;4.24;82.72;93354.55;1725880;83;21060;-56
2021/01/01 03:23:05;;;;;;;63.15;33.78;;;;;;;4.31;82.71;93351.59;1725912;81;21178;-57
2021/01/01 03:25:33;;;;;;;63.70;36.20;;;;;;;4.34;82.35;93347.22;1725971;83;21155;-56
2021/01/01 03:28:02;;;;;;;63.50;38.80;;;;;;;4.28;82.41;93353.07;1726011;83;22249;-57
2021/01/01 03:30:31;;;;;;;64.35;37.45;;;;;;;4.31;82.69;93358.41;1693753;83;21083;-57
2021/01/01 03:32:59;;;;;;;67.03;38.90;;;;;;;4.40;82.66;93348.20;1725931;82;21092;-57
2021/01/01 03:35:29;;;;;;;64.12;39.67;;;;;;;4.51;82.66;93351.30;1725869;83;21992;-56
2021/01/01 03:37:57;;;;;;;70.83;41.10;;;;;;;4.60;82.42;93363.02;1725921;83;21096;-56
2021/01/01 03:40:25;;;;;;;62.60;37.78;;;;;;;4.69;82.13;93367.18;1725962;83;22138;-56
2021/01/01 03:42:53;;;;;;;64.30;37.70;;;;;;;4.69;81.48;93359.59;1725939;83;21551;-57
2021/01/01 03:45:22;;;;;;;71.57;40.40;;;;;;;4.62;81.30;93359.86;1725892;83;21195;-56
2021/01/01 03:47:50;;;;;;;72.05;41.58;;;;;;;4.59;81.50;93364.22;1693671;83;21100;-57
2021/01/01 03:50:18;;;;;;;76.62;44.90;;;;;;;4.55;81.17;93373.11;1725894;82;21100;-57
2021/01/01 03:52:47;;;;;;;70.20;42.23;;;;;;;4.49;81.33;93374.11;1726023;83;22328;-55
2021/01/01 03:55:15;;;;;;;77.58;42.95;;;;;;;4.45;81.37;93386.48;1725821;83;21144;-57
2021/01/01 03:57:42;;;;;;;72.55;42.25;;;;;;;4.44;81.68;93395.85;1725811;83;21159;-57
2021/01/01 04:00:12;;;;;;;75.78;45.43;;;;;;;4.45;81.70;93385.12;1725712;82;21008;-56
2021/01/01 04:02:40;;;;;;;75.20;44.18;;;;;;;4.43;81.39;93372.55;1725908;83;21108;-55
2021/01/01 04:05:11;;;;;;;74.72;43.83;;;;;;;4.40;81.91;93381.61;1725827;83;21452;-55
2021/01/01 04:07:39;;;;;;;82.27;48.52;;;;;;;4.38;81.56;93407.15;1725850;83;21553;-57
2021/01/01 04:10:09;;;;;;;79.17;44.85;;;;;;;4.27;81.57;93405.37;1725875;83;21091;-56
2021/01/01 04:12:37;;;;;;;74.77;42.73;;;;;;;4.18;82.06;93395.77;1725859;83;21092;-55
2021/01/01 04:15:06;;;;;;;75.35;45.70;;;;;;;4.23;82.17;93387.66;1725887;83;21174;-57
2021/01/01 04:17:37;;;;;;;77.97;46.75;;;;;;;4.27;82.22;93388.30;1725835;83;21384;-57
2021/01/01 04:20:07;;;;;;;65.78;41.08;;;;;;;4.30;82.07;93393.63;1725858;83;21528;-56
2021/01/01 04:22:35;;;;;;;72.35;42.78;;;;;;;4.27;82.10;93393.13;1725974;83;21130;-56
2021/01/01 04:25:06;;;;;;;65.80;40.55;;;;;;;4.23;82.21;93393.84;1725938;83;21616;-57
2021/01/01 04:27:33;;;;;;;59.45;38.00;;;;;;;4.28;82.38;93407.50;1725915;83;21170;-57
2021/01/01 04:30:01;;;;;;;65.25;39.60;;;;;;;4.28;82.24;93403.42;1725846;83;23575;-56
2021/01/01 04:32:30;;;;;;;61.28;38.15;;;;;;;4.26;82.19;93405.21;1725763;83;21104;-56
2021/01/01 04:34:58;;;;;;;52.90;35.17;;;;;;;4.25;82.22;93404.30;1725831;83;21544;-56
2021/01/01 04:37:26;;;;;;;61.08;38.53;;;;;;;4.18;82.18;93418.91;1725822;83;21183;-58
2021/01/01 04:39:54;;;;;;;69.90;42.40;;;;;;;4.11;82.26;93421.87;1725858;83;21119;-57
2021/01/01 04:42:22;;;;;;;58.75;38.48;;;;;;;4.12;82.47;93441.08;1725946;83;22156;-58
2021/01/01 04:44:50;;;;;;;57.78;37.90;;;;;;;4.18;82.80;93437.17;1725816;83;21235;-57
2021/01/01 04:47:18;;;;;;;65.03;41.37;;;;;;;4.27;82.70;93421.70;1725958;83;21525;-57
2021/01/01 04:49:47;;;;;;;64.70;41.53;;;;;;;4.30;82.40;93434.45;1693760;83;21069;-57
2021/01/01 04:52:17;;;;;;;64.07;42.23;;;;;;;4.24;82.40;93443.61;1725909;83;21152;-58
2021/01/01 04:54:46;;;;;;;57.88;38.63;;;;;;;4.24;82.54;93453.87;1725911;83;21359;-56
2021/01/01 04:57:14;;;;;;;49.23;32.60;;;;;;;4.23;82.53;93434.67;1725773;83;21187;-56
2021/01/01 04:59:42;;;;;;;55.75;35.68;;;;;;;4.28;82.61;93451.05;1725695;83;21179;-58
2021/01/01 05:02:10;;;;;;;53.00;33.92;;;;;;;4.32;82.59;93449.75;1725849;83;21080;-56
2021/01/01 05:04:38;;;;;;;56.10;35.58;;;;;;;4.36;82.46;93429.97;1725863;83;21100;-57
2021/01/01 05:07:06;;;;;;;48.68;31.07;;;;;;;4.35;82.16;93444.78;1725875;83;21402;-58
2021/01/01 05:09:34;;;;;;;57.03;37.30;;;;;;;4.29;82.17;93460.16;1725790;82;21159;-57
2021/01/01 05:12:09;;;;;;;44.48;31.42;;;;;;;4.23;82.19;93450.25;1725876;83;21099;-57
2021/01/01 05:14:38;;;;;;;50.85;35.35;;;;;;;4.22;82.45;93457.64;1725858;83;21084;-57
2021/01/01 05:17:06;;;;;;;60.12;39.18;;;;;;;4.22;82.34;93459.00;1725917;83;21492;-56
2021/01/01 05:19:41;;;;;;;50.83;34.43;;;;;;;4.18;82.32;93457.00;1725865;83;22253;-56
2021/01/01 05:22:11;;;;;;;56.40;36.33;;;;;;;4.18;82.27;93461.08;1725839;83;21532;-56
2021/01/01 05:24:46;;;;;;;59.88;37.73;;;;;;;4.14;82.26;93467.24;1725909;83;21100;-56
2021/01/01 05:27:16;;;;;;;57.10;36.60;;;;;;;4.17;82.15;93472.39;1725908;83;21159;-56
2021/01/01 05:29:55;;;;;;;51.13;34.10;;;;;;;4.15;81.85;93481.02;1725995;83;21571;-57
2021/01/01 05:32:25;;;;;;;54.15;34.73;;;;;;;4.16;82.14;93483.89;1725934;83;21395;-56
2021/01/01 05:34:54;;;;;;;63.95;36.60;;;;;;;4.22;82.12;93483.50;1725749;83;21175;-55
2021/01/01 05:37:30;;;;;;;52.13;33.45;;;;;;;4.21;81.94;93484.70;1725777;81;21174;-57
2021/01/01 05:40:13;;;;;;;47.40;32.58;;;;;;;4.24;82.11;93485.18;1725854;83;21111;-57
2021/01/01 05:42:42;;;;;;;45.88;30.00;;;;;;;4.30;81.96;93490.26;1725845;83;21171;-56
2021/01/01 05:45:17;;;;;;;50.33;32.42;;;;;;;4.31;81.50;93492.36;1725800;83;21362;-56
2021/01/01 05:48:05;;;;;;;53.50;33.38;;;;;;;4.25;81.71;93481.26;1720223;83;21158;-56
2021/01/01 05:50:35;;;;;;;49.35;32.85;;;;;;;4.24;81.49;93490.63;1725806;83;21134;-57
2021/01/01 05:53:16;;;;;;;51.28;34.35;;;;;;;4.20;81.54;93489.98;1725890;83;21151;-56
2021/01/01 05:55:47;;;;;;;54.77;34.00;;;;;;;4.17;81.45;93499.61;1692576;83;39599;-57
2021/01/01 05:58:23;;;;;;;51.60;35.00;;;;;;;4.14;81.32;93497.17;1725869;83;22304;-56
2021/01/01 06:00:55;;;;;;;50.38;34.27;;;;;;;4.11;81.25;93500.77;1726860;82;21095;-56
2021/01/01 06:03:28;;;;;;;68.52;39.50;;;;;;;4.06;81.16;93504.02;1727466;83;21572;-56
2021/01/01 06:05:57;;;;;;;62.30;39.23;;;;;;;3.99;80.92;93506.97;1699432;83;21194;-57
2021/01/01 06:08:29;;;;;;;58.33;36.45;;;;;;;3.92;81.09;93509.91;1728494;83;21110;-56
2021/01/01 06:11:05;;;;;;;54.67;36.08;;;;;;;3.89;81.39;93510.76;1728400;83;21218;-57
2021/01/01 06:13:35;;;;;;;48.25;33.88;;;;;;;3.88;81.24;93517.40;1728361;83;21143;-57
2021/01/01 06:16:05;;;;;;;52.25;34.60;;;;;;;3.85;81.14;93523.70;1728349;83;21175;-57
2021/01/01 06:18:34;;;;;;;55.28;35.43;;;;;;;3.81;81.25;93524.42;1728419;83;21199;-57
2021/01/01 06:21:07;;;;;;;51.85;34.27;;;;;;;3.80;81.35;93525.61;1728487;83;21597;-56
2021/01/01 06:23:39;;;;;;;58.08;35.58;;;;;;;3.80;81.34;93529.70;1728269;83;21394;-56
2021/01/01 06:26:10;;;;;;;46.83;33.10;;;;;;;3.81;81.53;93523.64;1728628;83;21111;-57
2021/01/01 06:28:44;;;;;;;52.67;36.28;;;;;;;3.84;81.45;93531.70;1728408;83;21071;-57
2021/01/01 06:31:12;;;;;;;52.20;34.75;;;;;;;3.88;81.32;93532.36;1728426;83;21151;-57
2021/01/01 06:33:43;;;;;;;58.10;36.73;;;;;;;3.92;81.32;93537.70;1728424;83;21103;-57
2021/01/01 06:36:37;;;;;;;54.25;35.48;;;;;;;3.96;81.33;93546.52;1728474;83;22125;-57
2021/01/01 06:39:05;;;;;;;;;;;;;;;3.96;81.17;93551.95;1731012;83;21201;-55
2021/01/01 06:41:45;;;;;;;79.53;47.67;;;;;;;3.87;81.21;93551.23;1728351;83;20258;-55
2021/01/01 06:44:37;;;;;;;120.95;64.90;;;;;;;3.92;81.48;93558.10;1890082;75;22238;-57
2021/01/01 06:47:42;;;;;;;102.30;61.45;;;;;;;3.91;81.42;93561.41;1861108;77;21117;-56
2021/01/01 06:50:30;;;;;;;82.60;51.63;;;;;;;4.01;81.58;93568.51;1860965;77;21183;-56
2021/01/01 06:53:13;;;;;;;87.67;54.50;;;;;;;4.08;81.41;93565.56;1860997;77;21466;-58
2021/01/01 06:55:47;;;;;;;84.50;53.45;;;;;;;4.06;81.02;93569.94;1851381;77;21939;-57
2021/01/01 06:58:19;;;;;;;80.70;53.85;;;;;;;3.99;81.17;93572.84;1861232;77;20974;-56
2021/01/01 07:00:53;;;;;;;76.30;47.95;;;;;;;3.99;81.34;93575.56;1858102;77;21084;-58
2021/01/01 07:03:36;;;;;;;75.55;48.92;;;;;;;4.01;81.32;93580.75;1861081;77;21447;-56
2021/01/01 07:06:09;;;;;;;85.55;50.70;;;;;;;4.03;81.63;93585.77;1861148;77;21136;-57
2021/01/01 07:08:43;;;;;;;58.15;37.83;;;;;;;4.09;81.81;93591.58;1861067;77;21128;-57
2021/01/01 07:11:23;;;;;;;49.40;33.80;;;;;;;4.16;81.68;93595.47;1861054;77;21056;-57
2021/01/01 07:13:55;;;;;;;43.02;29.35;;;;;;;4.16;81.67;93591.38;1861075;77;21037;-56
2021/01/01 07:16:24;;;;;;;38.42;29.90;;;;;;;4.25;81.89;93602.38;1860971;77;21354;-56
2021/01/01 07:18:53;;;;;;;42.00;28.98;;;;;;;4.35;81.66;93605.39;1860852;77;21171;-57
2021/01/01 07:21:22;;;;;;;48.25;34.55;;;;;;;4.41;81.40;93610.45;1860939;77;21274;-56
2021/01/01 07:23:51;;;;;;;63.65;44.35;;;;;;;4.42;81.42;93613.95;1861003;77;21053;-57
2021/01/01 07:26:20;;;;;;;80.80;53.02;;;;;;;4.39;81.08;93615.56;1861034;77;21048;-57
2021/01/01 07:28:48;;;;;;;90.53;60.52;;;;;;;4.29;81.04;93612.58;1860931;77;21134;-58
2021/01/01 07:31:18;;;;;;;100.35;60.55;;;;;;;4.25;81.42;93613.26;1860834;77;21066;-57
2021/01/01 07:33:47;;;;;;;85.65;56.60;;;;;;;4.32;81.36;93620.45;1861007;77;21133;-56
2021/01/01 07:36:15;;;;;;;94.35;64.03;;;;;;;4.41;81.40;93633.58;1860916;77;21123;-57
2021/01/01 07:38:47;;;;;;;85.75;56.83;;;;;;;4.54;81.39;93630.86;1861064;77;21132;-58
2021/01/01 07:41:21;;;;;;;92.37;56.57;;;;;;;4.63;81.32;93629.02;1873518;76;21508;-57
2021/01/01 07:43:50;;;;;;;90.28;56.58;;;;;;;4.67;81.21;93633.77;1806906;79;21496;-56
2021/01/01 07:46:18;;;;;;;84.05;54.15;;;;;;;4.76;81.24;93636.59;1822825;78;21077;-58
2021/01/01 07:48:52;;;;;;;89.47;60.12;;;;;;;4.88;80.81;93641.27;1807065;79;21052;-57
2021/01/01 07:51:21;;;;;;;79.35;56.75;;;;;;;4.89;80.53;93643.38;1822923;78;21048;-57
2021/01/01 07:53:49;;;;;;;77.35;50.08;;;;;;;4.94;80.52;93655.87;1806964;79;21364;-58
2021/01/01 07:56:21;;;;;;;97.42;61.80;;;;;;;4.95;80.16;93650.58;1822220;78;21068;-58
2021/01/01 07:58:48;;;;;;;102.80;66.97;;;;;;;4.90;79.99;93659.89;1822467;78;21052;-57
2021/01/01 08:01:18;;;;;;;102.90;66.70;;;;;;;4.83;80.21;93656.04;1822306;78;21059;-57
2021/01/01 08:03:47;;;;;;;101.00;67.22;;;;;;;4.81;80.10;93657.83;1822332;78;21043;-57
2021/01/01 08:06:17;;;;;;;82.53;53.83;;;;;;;4.82;80.10;93666.16;1806693;78;22216;-58
2021/01/01 08:08:45;;;;;;;82.78;53.83;;;;;;;4.82;80.42;93668.88;1822155;78;21135;-58
2021/01/01 08:11:14;;;;;;;59.08;42.85;;;;;;;4.91;80.92;93676.41;1822337;78;21599;-56
2021/01/01 08:13:42;;;;;;;55.90;39.58;;;;;;;5.05;80.67;93684.92;1806485;79;21056;-57
2021/01/01 08:16:16;;;;;;;56.20;38.80;;;;;;;5.11;80.35;93675.59;1822252;78;21035;-58
2021/01/01 08:18:44;;;;;;;97.10;61.60;;;;;;;5.17;80.32;93685.48;1806693;78;21415;-57
2021/01/01 08:21:12;;;;;;;93.50;63.90;;;;;;;5.18;79.75;93693.83;1822299;78;21084;-58
2021/01/01 08:23:55;;;;;;;82.17;59.38;;;;;;;5.19;79.82;93700.80;1806661;79;21144;-57
2021/01/01 08:26:23;;;;;;;100.42;68.15;;;;;;;5.20;79.56;93696.91;1822261;78;21122;-58
2021/01/01 08:28:51;;;;;;;101.97;69.55;;;;;;;5.12;79.81;93704.38;1806484;79;21052;-57
2021/01/01 08:31:23;;;;;;;102.87;71.65;;;;;;;5.12;80.08;93709.83;1822253;78;21205;-60
2021/01/01 08:33:53;;;;;;;114.95;74.42;;;;;;;5.16;79.91;93714.56;1806613;79;21491;-58
2021/01/01 08:36:33;;;;;;;123.13;80.20;;;;;;;5.13;79.77;93721.64;1792715;78;21084;-59
2021/01/01 08:39:13;;;;;;;121.62;79.00;;;;;;;5.02;79.77;93718.50;1806586;79;21064;-58
2021/01/01 08:41:46;;;;;;;146.15;97.35;;;;;;;4.98;80.20;93725.25;1822201;78;21095;-56
2021/01/01 08:44:14;;;;;;;127.17;82.85;;;;;;;4.98;80.08;93724.63;1806467;79;21254;-57
2021/01/01 08:46:43;;;;;;;120.17;77.87;;;;;;;4.91;80.20;93726.81;1822134;78;21326;-57
2021/01/01 08:49:20;;;;;;;101.02;68.22;;;;;;;4.90;80.50;93728.78;1806495;79;21072;-58
2021/01/01 08:51:49;;;;;;;91.72;63.08;;;;;;;4.90;80.54;93726.65;1822412;78;21056;-61
2021/01/01 08:54:24;;;;;;;85.72;60.58;;;;;;;4.94;80.66;93730.05;1818734;78;21472;-60
2021/01/01 08:57:00;;;;;;;96.60;62.90;;;;;;;4.96;80.89;93736.58;1822239;78;21320;-59
2021/01/01 08:59:30;;;;;;;91.60;61.40;;;;;;;5.06;80.91;93733.36;1793201;78;21503;-57
2021/01/01 09:02:03;;;;;;;83.22;58.48;;;;;;;5.16;80.59;93743.19;1806509;79;21068;-58
2021/01/01 09:04:30;;;;;;;88.85;59.95;;;;;;;5.15;80.43;93747.11;1822400;78;21499;-57
2021/01/01 09:07:00;;;;;;;89.85;60.00;;;;;;;5.12;80.52;93741.92;1806488;79;21072;-57
2021/01/01 09:09:32;;;;;;;79.62;55.52;;;;;;;5.18;80.38;93744.88;1822366;78;21150;-58
2021/01/01 09:12:20;;;;;;;90.85;62.80;;;;;;;5.20;80.23;93751.42;1806448;79;21068;-57
2021/01/01 09:14:55;;;;;;;89.45;63.60;;;;;;;5.19;80.27;93752.59;1822247;78;21052;-57
2021/01/01 09:17:26;;;;;;;100.78;70.65;;;;;;;5.12;80.09;93748.73;1822197;78;21147;-57
2021/01/01 09:20:06;;;;;;;103.70;67.85;;;;;;;5.07;80.36;93763.50;1806626;79;21532;-58
2021/01/01 09:22:35;;;;;;;108.30;76.00;;;;;;;5.06;80.40;93762.75;1822256;78;21200;-57
2021/01/01 09:25:24;;;;;;;107.47;72.35;;;;;;;5.04;80.34;93762.43;1806495;79;21132;-59
2021/01/01 09:27:53;;;;;;;111.92;76.47;;;;;;;5.02;80.47;93767.55;1822290;78;21485;-59
2021/01/01 09:30:27;;;;;;;123.07;82.50;;;;;;;5.03;80.72;93769.66;1806437;79;21056;-58
2021/01/01 09:32:57;;;;;;;110.48;74.58;;;;;;;5.07;81.15;93760.78;1822190;78;21119;-58
2021/01/01 09:35:25;;;;;;;97.60;66.20;;;;;;;5.16;81.02;93773.17;1822286;78;21206;-61
2021/01/01 09:38:02;;;;;;;118.85;76.25;;;;;;;5.21;80.34;93772.62;1806358;78;21127;-59
2021/01/01 09:40:34;;;;;;;115.20;75.50;;;;;;;5.21;80.23;93765.22;1822094;78;21496;-58
2021/01/01 09:43:05;;;;;;;102.87;70.42;;;;;;;5.24;80.23;93768.42;1821984;78;21056;-58
2021/01/01 09:45:35;;;;;;;76.57;53.17;;;;;;;5.27;80.15;93768.30;1806446;78;21135;-57
2021/01/01 09:48:05;;;;;;;74.82;50.73;;;;;;;5.32;79.14;93767.00;1822147;78;21453;-58
2021/01/01 09:50:33;;;;;;;72.60;51.77;;;;;;;5.43;78.85;93775.00;1822111;78;21186;-57
2021/01/01 09:53:02;;;;;;;75.12;49.08;;;;;;;5.49;79.00;93771.12;1806361;79;21059;-57
2021/01/01 09:55:31;;;;;;;47.93;34.48;;;;;;;5.53;78.29;93765.73;1822114;78;21044;-57
2021/01/01 09:57:59;;;;;;;35.68;22.52;;;;;;;5.62;76.90;93778.70;1822290;78;21483;-58
2021/01/01 10:00:29;;;;;;;24.07;15.72;;;;;;;5.75;74.58;93780.83;1803704;79;21370;-59
2021/01/01 10:02:57;;;;;;;26.02;16.87;;;;;;;5.88;72.23;93776.11;1822052;78;21127;-57
2021/01/01 10:05:26;;;;;;;22.40;16.80;;;;;;;6.05;71.65;93782.36;1806370;79;21136;-56
2021/01/01 10:07:54;;;;;;;37.78;23.15;;;;;;;6.26;71.32;93791.77;1822205;78;21703;-59
2021/01/01 10:10:23;;;;;;;33.05;20.45;;;;;;;6.42;70.28;93782.05;1822127;78;21151;-57
2021/01/01 10:12:52;;;;;;;30.90;19.67;;;;;;;6.52;69.30;93783.66;1806383;78;21137;-58
2021/01/01 10:15:21;;;;;;;43.38;26.48;;;;;;;6.59;69.14;93780.66;1822081;78;21517;-59
2021/01/01 10:17:48;;;;;;;25.97;18.15;;;;;;;6.68;69.25;93773.29;1806356;79;21068;-57
2021/01/01 10:20:18;;;;;;;17.12;13.25;;;;;;;6.82;68.90;93773.37;1822115;78;21171;-57
2021/01/01 10:22:51;;;;;;;17.17;11.53;;;;;;;6.94;68.43;93769.80;1806652;79;21040;-58
2021/01/01 10:25:19;;;;;;;15.83;11.75;;;;;;;7.05;67.20;93766.08;1803727;79;22241;-64
2021/01/01 10:27:47;;;;;;;14.53;10.80;;;;;;;7.14;65.91;93762.16;1822226;78;21520;-57
2021/01/01 10:30:17;;;;;;;10.55;7.85;;;;;;;7.19;65.04;93769.78;1806378;78;21099;-58
2021/01/01 10:32:45;;;;;;;12.88;10.15;;;;;;;7.34;64.56;93768.03;1822190;78;21135;-58
2021/01/01 10:35:13;;;;;;;9.65;8.13;;;;;;;7.53;63.07;93765.52;1806439;79;21638;-58
2021/01/01 10:37:41;;;;;;;8.58;7.15;;;;;;;7.77;62.35;93767.89;1822212;78;21207;-58
2021/01/01 10:40:10;;;;;;;6.45;5.42;;;;;;;8.24;62.47;93765.55;1806270;79;21076;-57
2021/01/01 10:42:38;;;;;;;5.60;5.05;;;;;;;8.75;59.78;93770.57;1822141;78;21060;-60
2021/01/01 10:45:08;;;;;;;6.62;5.62;;;;;;;8.94;58.15;93766.58;1806142;79;21135;-58
2021/01/01 10:47:36;;;;;;;6.83;5.65;;;;;;;9.04;58.14;93763.98;1822154;78;21123;-58
2021/01/01 10:50:09;;;;;;;6.50;5.53;;;;;;;9.12;58.30;93765.17;1822088;78;22456;-61
2021/01/01 10:52:37;;;;;;;;;;;;;;;9.20;56.96;93770.47;1809001;79;21120;-59
2021/01/01 10:55:07;;;;;;;9.30;7.22;;;;;;;9.21;57.42;93772.02;1822156;78;20227;-59
2021/01/01 10:57:35;;;;;;;6.35;5.58;;;;;;;9.17;57.04;93776.30;1806348;78;21131;-57
2021/01/01 11:00:07;;;;;;;6.42;5.30;;;;;;;9.07;55.54;93774.03;1822171;78;21111;-58
2021/01/01 11:02:35;;;;;;;8.38;5.80;;;;;;;9.13;55.92;93768.06;1806431;79;21198;-58
2021/01/01 11:05:05;;;;;;;5.37;4.87;;;;;;;9.04;55.38;93777.70;1821986;78;21154;-59
2021/01/01 11:07:33;;;;;;;10.43;6.83;;;;;;;8.95;55.04;93768.11;1806433;78;21468;-57
2021/01/01 11:10:01;;;;;;;15.72;9.68;;;;;;;9.22;54.86;93777.03;1822058;78;21076;-58
2021/01/01 11:12:32;;;;;;;11.05;7.97;;;;;;;9.53;54.40;93772.66;1822166;78;21131;-57
2021/01/01 11:15:25;;;;;;;8.73;6.40;;;;;;;9.79;54.55;93775.91;1822098;78;21389;-58
2021/01/01 12:22:01;;;;;;;5.10;3.30;;;;;;;15.70;36.59;93847.42;1822343;78;21067;-58
2021/01/01 12:26:56;;;;;;;4.75;3.12;;;;;;;16.44;35.16;93852.66;1822260;78;21555;-59
2021/01/01 12:29:27;;;;;;;4.75;2.52;;;;;;;16.50;34.78;93860.34;1806538;78;21616;-58
2021/01/01 12:31:57;;;;;;;4.33;2.60;;;;;;;16.29;34.71;93870.17;1793129;78;21584;-59
2021/01/01 12:34:29;;;;;;;4.45;3.05;;;;;;;15.60;35.38;93873.88;1806348;79;21127;-58
2021/01/01 12:36:58;;;;;;;4.53;2.87;;;;;;;14.70;36.76;93868.27;1806474;79;21414;-58
2021/01/01 12:39:26;;;;;;;7.10;4.20;;;;;;;13.79;38.27;93873.33;1806371;79;21131;-58
2021/01/01 12:41:54;;;;;;;7.15;4.22;;;;;;;12.90;39.76;93874.93;1777561;79;21131;-58
2021/01/01 12:44:22;;;;;;;8.55;5.22;;;;;;;12.04;41.37;93881.45;1806179;79;21231;-58
2021/01/01 12:46:53;;;;;;;10.25;6.50;;;;;;;11.38;42.77;93887.14;1806544;79;21429;-58
2021/01/01 12:49:21;;;;;;;7.65;5.37;;;;;;;10.90;43.98;93887.83;1806510;79;21369;-58